Terminal Aerodrome Forecast
Issued by NWS

Home | Current Version | Previous Version | Text Only | Print | Product List | Glossary On
Versions: 1 2 3 4 5 6 7 8 9 10 11 12 13 14 15 16
000
FTUS45 KCYS 141120
TAFLAR
TAF
KLAR 141120Z 1412/1512 31008KT P6SM VCSH SCT015 OVC025
     FM141400 33008KT P6SM SCT025 BKN050
     FM141800 33015G25KT P6SM BKN050 BKN100
     FM142300 32008KT P6SM SCT200=

USA.gov is the U.S. government's official web portal to all federal, state and local government web resources and services.